sensor_id;sensor_type;location;lat;lon;timestamp;pressure;altitude;pressure_sealevel;temperature;humidity
43161;BME280;40968;52.342;5.528;2023-04-21T00:00:47;101583.25;;;10.16;65.88
43161;BME280;40968;52.342;5.528;2023-04-21T00:03:14;101647.66;;;10.59;66.41
43161;BME280;40968;52.342;5.528;2023-04-21T00:05:40;101649.75;;;10.54;66.52
43161;BME280;40968;52.342;5.528;2023-04-21T00:08:09;101600.84;;;10.20;66.96
43161;BME280;40968;52.342;5.528;2023-04-21T00:10:35;101639.88;;;10.40;67.18
43161;BME280;40968;52.342;5.528;2023-04-21T00:13:02;101599.31;;;10.16;67.54
43161;BME280;40968;52.342;5.528;2023-04-21T00:15:28;101612.56;;;10.19;67.71
43161;BME280;40968;52.342;5.528;2023-04-21T00:17:55;101588.94;;;9.95;68.12
43161;BME280;40968;52.342;5.528;2023-04-21T00:20:22;101637.41;;;10.21;68.66
43161;BME280;40968;52.342;5.528;2023-04-21T00:22:51;101561.28;;;9.81;69.04
43161;BME280;40968;52.342;5.528;2023-04-21T00:25:19;101536.66;;;9.59;69.42
43161;BME280;40968;52.342;5.528;2023-04-21T00:27:45;101618.28;;;10.13;69.58
43161;BME280;40968;52.342;5.528;2023-04-21T00:30:12;101622.94;;;10.09;70.10
43161;BME280;40968;52.342;5.528;2023-04-21T00:32:39;101548.31;;;9.58;70.62
43161;BME280;40968;52.342;5.528;2023-04-21T00:35:06;101623.31;;;10.03;71.03
43161;BME280;40968;52.342;5.528;2023-04-21T00:37:33;101620.72;;;10.02;71.27
43161;BME280;40968;52.342;5.528;2023-04-21T00:40:00;101615.38;;;10.02;71.70
43161;BME280;40968;52.342;5.528;2023-04-21T00:42:29;101589.13;;;9.92;71.90
43161;BME280;40968;52.342;5.528;2023-04-21T00:44:56;101564.81;;;9.81;71.95
43161;BME280;40968;52.342;5.528;2023-04-21T00:47:22;101597.31;;;10.05;72.37
43161;BME280;40968;52.342;5.528;2023-04-21T00:49:49;101598.09;;;10.07;71.85
43161;BME280;40968;52.342;5.528;2023-04-21T00:52:17;101522.13;;;9.63;72.26
43161;BME280;40968;52.342;5.528;2023-04-21T00:54:43;101556.31;;;9.89;72.15
43161;BME280;40968;52.342;5.528;2023-04-21T00:57:10;101594.91;;;10.15;72.48
43161;BME280;40968;52.342;5.528;2023-04-21T00:59:38;101556.66;;;9.99;72.72
43161;BME280;40968;52.342;5.528;2023-04-21T01:02:05;101518.34;;;9.82;72.73
43161;BME280;40968;52.342;5.528;2023-04-21T01:04:31;101511.66;;;9.75;72.19
43161;BME280;40968;52.342;5.528;2023-04-21T01:07:03;101536.38;;;9.94;72.07
43161;BME280;40968;52.342;5.528;2023-04-21T01:09:30;101532.16;;;9.90;72.66
43161;BME280;40968;52.342;5.528;2023-04-21T01:12:01;101588.06;;;10.25;72.42
43161;BME280;40968;52.342;5.528;2023-04-21T01:14:28;101582.53;;;10.28;72.71
43161;BME280;40968;52.342;5.528;2023-04-21T01:16:56;101584.06;;;10.33;72.72
43161;BME280;40968;52.342;5.528;2023-04-21T01:19:24;101572.94;;;10.24;72.46
43161;BME280;40968;52.342;5.528;2023-04-21T01:21:53;101346.84;;;8.97;72.92
43161;BME280;40968;52.342;5.528;2023-04-21T01:24:22;101433.69;;;9.51;72.94
43161;BME280;40968;52.342;5.528;2023-04-21T01:26:48;101486.22;;;9.82;73.03
43161;BME280;40968;52.342;5.528;2023-04-21T01:29:16;101466.06;;;9.76;72.56
43161;BME280;40968;52.342;5.528;2023-04-21T01:31:43;101500.41;;;9.99;72.84
43161;BME280;40968;52.342;5.528;2023-04-21T01:34:11;101478.41;;;9.93;72.96
43161;BME280;40968;52.342;5.528;2023-04-21T01:36:38;101513.22;;;10.08;73.12
43161;BME280;40968;52.342;5.528;2023-04-21T01:39:06;101561.31;;;10.40;73.15
43161;BME280;40968;52.342;5.528;2023-04-21T01:41:32;101489.13;;;9.93;73.32
43161;BME280;40968;52.342;5.528;2023-04-21T01:44:00;101464.06;;;9.80;73.05
43161;BME280;40968;52.342;5.528;2023-04-21T01:46:26;101482.72;;;9.96;72.66
43161;BME280;40968;52.342;5.528;2023-04-21T01:48:53;101552.50;;;10.38;73.01
43161;BME280;40968;52.342;5.528;2023-04-21T01:51:20;101549.06;;;10.36;72.97
43161;BME280;40968;52.342;5.528;2023-04-21T01:53:46;101494.75;;;10.03;73.10
43161;BME280;40968;52.342;5.528;2023-04-21T01:56:14;101537.63;;;10.32;72.83
43161;BME280;40968;52.342;5.528;2023-04-21T01:58:41;101513.91;;;10.11;72.64
43161;BME280;40968;52.342;5.528;2023-04-21T02:01:07;101495.16;;;9.97;72.88
43161;BME280;40968;52.342;5.528;2023-04-21T02:03:35;101535.53;;;10.23;72.79
43161;BME280;40968;52.342;5.528;2023-04-21T02:06:01;101496.38;;;9.91;73.13
43161;BME280;40968;52.342;5.528;2023-04-21T02:08:28;101456.41;;;9.74;73.38
43161;BME280;40968;52.342;5.528;2023-04-21T02:10:54;101530.38;;;10.20;73.46
43161;BME280;40968;52.342;5.528;2023-04-21T02:13:22;101438.97;;;9.67;73.46
43161;BME280;40968;52.342;5.528;2023-04-21T02:15:49;101467.31;;;9.85;73.34
43161;BME280;40968;52.342;5.528;2023-04-21T02:18:16;101482.13;;;9.91;73.49
43161;BME280;40968;52.342;5.528;2023-04-21T02:20:44;101527.88;;;10.17;73.57
43161;BME280;40968;52.342;5.528;2023-04-21T02:23:11;101504.81;;;10.00;73.96
43161;BME280;40968;52.342;5.528;2023-04-21T02:25:37;101417.94;;;9.46;74.16
43161;BME280;40968;52.342;5.528;2023-04-21T02:28:04;101530.94;;;10.25;74.39
43161;BME280;40968;52.342;5.528;2023-04-21T02:30:32;101477.34;;;9.96;74.34
43161;BME280;40968;52.342;5.528;2023-04-21T02:32:59;101505.78;;;10.13;74.14
43161;BME280;40968;52.342;5.528;2023-04-21T02:35:26;101526.25;;;10.28;74.26
43161;BME280;40968;52.342;5.528;2023-04-21T02:37:53;101532.56;;;10.27;74.27
43161;BME280;40968;52.342;5.528;2023-04-21T02:40:19;101490.06;;;10.07;74.44
43161;BME280;40968;52.342;5.528;2023-04-21T02:42:46;101488.91;;;9.96;74.35
43161;BME280;40968;52.342;5.528;2023-04-21T02:45:13;101268.56;;;8.65;74.39
43161;BME280;40968;52.342;5.528;2023-04-21T02:47:41;101528.16;;;10.26;74.61
43161;BME280;40968;52.342;5.528;2023-04-21T02:50:08;101529.88;;;10.27;74.37
43161;BME280;40968;52.342;5.528;2023-04-21T02:52:35;101531.78;;;10.25;74.31
43161;BME280;40968;52.342;5.528;2023-04-21T02:55:02;101491.13;;;10.04;74.58
43161;BME280;40968;52.342;5.528;2023-04-21T02:57:29;101529.22;;;10.24;74.77
43161;BME280;40968;52.342;5.528;2023-04-21T02:59:56;101522.13;;;10.23;74.71
43161;BME280;40968;52.342;5.528;2023-04-21T03:02:22;101531.03;;;10.23;74.88
43161;BME280;40968;52.342;5.528;2023-04-21T03:04:50;101536.41;;;10.23;74.83
43161;BME280;40968;52.342;5.528;2023-04-21T03:07:17;101537.34;;;10.22;74.85
43161;BME280;40968;52.342;5.528;2023-04-21T03:09:44;101520.59;;;10.04;74.98
43161;BME280;40968;52.342;5.528;2023-04-21T03:12:10;101505.56;;;9.87;75.26
43161;BME280;40968;52.342;5.528;2023-04-21T03:14:37;101547.06;;;9.94;75.30
43161;BME280;40968;52.342;5.528;2023-04-21T03:17:03;101282.16;;;8.29;75.50
43161;BME280;40968;52.342;5.528;2023-04-21T03:19:30;101513.56;;;9.73;76.03
43161;BME280;40968;52.342;5.528;2023-04-21T03:21:58;101490.84;;;9.50;76.15
43161;BME280;40968;52.342;5.528;2023-04-21T03:24:25;101461.84;;;9.27;76.26
43161;BME280;40968;52.342;5.528;2023-04-21T03:26:52;101562.72;;;9.86;76.71
43161;BME280;40968;52.342;5.528;2023-04-21T03:29:19;101499.44;;;9.55;76.59
43161;BME280;40968;52.342;5.528;2023-04-21T03:31:46;101540.44;;;9.86;76.62
43161;BME280;40968;52.342;5.528;2023-04-21T03:34:12;101460.50;;;9.35;76.55
43161;BME280;40968;52.342;5.528;2023-04-21T03:36:39;101487.69;;;9.57;76.23
43161;BME280;40968;52.342;5.528;2023-04-21T03:39:07;101449.81;;;9.35;76.21
43161;BME280;40968;52.342;5.528;2023-04-21T03:41:34;101488.47;;;9.59;76.33
43161;BME280;40968;52.342;5.528;2023-04-21T03:44:00;101513.19;;;9.79;76.44
43161;BME280;40968;52.342;5.528;2023-04-21T03:46:27;101465.50;;;9.41;76.47
43161;BME280;40968;52.342;5.528;2023-04-21T03:48:54;101510.28;;;9.68;76.75
43161;BME280;40968;52.342;5.528;2023-04-21T03:51:20;101514.59;;;9.70;76.92
43161;BME280;40968;52.342;5.528;2023-04-21T03:53:47;101474.97;;;9.46;76.98
43161;BME280;40968;52.342;5.528;2023-04-21T03:56:15;101521.00;;;9.68;76.98
43161;BME280;40968;52.342;5.528;2023-04-21T03:58:41;101412.19;;;9.07;77.00
43161;BME280;40968;52.342;5.528;2023-04-21T04:01:08;101450.34;;;9.25;76.89
43161;BME280;40968;52.342;5.528;2023-04-21T04:03:35;101546.72;;;9.70;77.26
43161;BME280;40968;52.342;5.528;2023-04-21T04:06:01;101508.19;;;9.73;77.19
43161;BME280;40968;52.342;5.528;2023-04-21T04:08:28;101508.00;;;9.76;77.08
43161;BME280;40968;52.342;5.528;2023-04-21T04:10:55;101486.75;;;9.58;77.20
43161;BME280;40968;52.342;5.528;2023-04-21T04:13:23;101462.53;;;9.45;77.27
43161;BME280;40968;52.342;5.528;2023-04-21T04:15:51;101496.16;;;9.66;77.25
43161;BME280;40968;52.342;5.528;2023-04-21T04:18:17;101483.69;;;9.50;77.24
43161;BME280;40968;52.342;5.528;2023-04-21T04:20:44;101470.84;;;9.41;77.40
43161;BME280;40968;52.342;5.528;2023-04-21T04:23:11;101512.91;;;9.53;77.37
43161;BME280;40968;52.342;5.528;2023-04-21T04:25:37;101528.19;;;9.67;77.63
43161;BME280;40968;52.342;5.528;2023-04-21T04:28:04;101522.72;;;9.69;77.51
43161;BME280;40968;52.342;5.528;2023-04-21T04:30:33;101512.00;;;9.69;77.75
43161;BME280;40968;52.342;5.528;2023-04-21T04:32:59;101443.88;;;9.29;77.30
43161;BME280;40968;52.342;5.528;2023-04-21T04:35:26;101508.19;;;9.73;77.46
43161;BME280;40968;52.342;5.528;2023-04-21T04:37:53;101499.22;;;9.74;77.51
43161;BME280;40968;52.342;5.528;2023-04-21T04:40:21;101512.69;;;9.72;77.44
43161;BME280;40968;52.342;5.528;2023-04-21T04:42:47;101515.63;;;9.68;77.69
43161;BME280;40968;52.342;5.528;2023-04-21T04:45:15;101418.97;;;9.13;77.50
43161;BME280;40968;52.342;5.528;2023-04-21T04:47:48;101474.81;;;9.34;78.09
43161;BME280;40968;52.342;5.528;2023-04-21T04:50:14;101306.00;;;8.33;77.99
43161;BME280;40968;52.342;5.528;2023-04-21T04:52:41;101456.50;;;9.11;78.18
43161;BME280;40968;52.342;5.528;2023-04-21T04:55:11;101527.59;;;9.62;78.28
43161;BME280;40968;52.342;5.528;2023-04-21T04:57:37;101525.75;;;9.62;78.16
43161;BME280;40968;52.342;5.528;2023-04-21T05:00:05;101517.91;;;9.59;78.36
43161;BME280;40968;52.342;5.528;2023-04-21T05:02:35;101518.78;;;9.60;78.36
43161;BME280;40968;52.342;5.528;2023-04-21T05:05:04;101525.16;;;9.57;78.56
43161;BME280;40968;52.342;5.528;2023-04-21T05:07:30;101525.34;;;9.54;78.80
43161;BME280;40968;52.342;5.528;2023-04-21T05:09:57;101396.72;;;8.82;78.98
43161;BME280;40968;52.342;5.528;2023-04-21T05:12:23;101525.72;;;9.48;79.10
43161;BME280;40968;52.342;5.528;2023-04-21T05:14:50;101443.97;;;8.98;79.34
43161;BME280;40968;52.342;5.528;2023-04-21T05:17:17;101489.88;;;9.20;79.27
43161;BME280;40968;52.342;5.528;2023-04-21T05:19:43;101407.16;;;8.71;79.64
43161;BME280;40968;52.342;5.528;2023-04-21T05:22:11;101447.56;;;8.96;79.64
43161;BME280;40968;52.342;5.528;2023-04-21T05:24:40;101432.81;;;8.89;79.60
43161;BME280;40968;52.342;5.528;2023-04-21T05:27:07;101530.38;;;9.44;79.94
43161;BME280;40968;52.342;5.528;2023-04-21T05:29:33;101397.50;;;8.68;80.10
43161;BME280;40968;52.342;5.528;2023-04-21T05:32:00;101523.31;;;9.43;80.05
43161;BME280;40968;52.342;5.528;2023-04-21T05:34:27;101367.84;;;8.41;80.21
43161;BME280;40968;52.342;5.528;2023-04-21T05:36:53;101517.97;;;9.43;80.00
43161;BME280;40968;52.342;5.528;2023-04-21T05:39:21;101292.31;;;8.07;80.13
43161;BME280;40968;52.342;5.528;2023-04-21T05:41:48;101470.91;;;9.09;80.37
43161;BME280;40968;52.342;5.528;2023-04-21T05:44:15;101362.88;;;8.35;80.45
43161;BME280;40968;52.342;5.528;2023-04-21T05:46:42;101471.50;;;9.14;80.75
43161;BME280;40968;52.342;5.528;2023-04-21T05:49:08;101480.75;;;9.08;80.82
43161;BME280;40968;52.342;5.528;2023-04-21T05:51:35;101408.38;;;8.65;81.00
43161;BME280;40968;52.342;5.528;2023-04-21T05:54:02;101544.03;;;9.40;81.36
43161;BME280;40968;52.342;5.528;2023-04-21T05:56:30;101396.59;;;8.53;81.36
43161;BME280;40968;52.342;5.528;2023-04-21T05:58:56;101485.41;;;9.05;81.45
43161;BME280;40968;52.342;5.528;2023-04-21T06:01:23;101532.97;;;9.46;81.26
43161;BME280;40968;52.342;5.528;2023-04-21T06:03:50;101310.41;;;8.02;81.24
43161;BME280;40968;52.342;5.528;2023-04-21T06:06:16;101449.31;;;8.98;81.25
43161;BME280;40968;52.342;5.528;2023-04-21T06:08:43;101378.38;;;8.60;81.36
43161;BME280;40968;52.342;5.528;2023-04-21T06:11:10;101309.63;;;8.16;81.17
43161;BME280;40968;52.342;5.528;2023-04-21T06:13:37;101523.81;;;9.50;81.35
43161;BME280;40968;52.342;5.528;2023-04-21T06:16:04;101497.13;;;9.34;81.22
43161;BME280;40968;52.342;5.528;2023-04-21T06:18:31;101472.38;;;9.15;81.45
43161;BME280;40968;52.342;5.528;2023-04-21T06:20:57;101528.22;;;9.51;81.56
43161;BME280;40968;52.342;5.528;2023-04-21T06:23:24;101506.69;;;9.38;81.42
43161;BME280;40968;52.342;5.528;2023-04-21T06:26:00;101520.00;;;9.54;81.54
43161;BME280;40968;52.342;5.528;2023-04-21T06:28:29;101510.53;;;9.49;81.34
43161;BME280;40968;52.342;5.528;2023-04-21T06:30:57;101521.91;;;9.52;81.39
43161;BME280;40968;52.342;5.528;2023-04-21T06:33:24;101497.00;;;9.36;81.46
43161;BME280;40968;52.342;5.528;2023-04-21T06:35:51;101378.38;;;8.60;81.36
43161;BME280;40968;52.342;5.528;2023-04-21T06:38:17;101401.28;;;8.80;81.21
43161;BME280;40968;52.342;5.528;2023-04-21T06:40:44;101497.47;;;9.28;81.64
43161;BME280;40968;52.342;5.528;2023-04-21T06:43:11;101527.34;;;9.51;81.67
43161;BME280;40968;52.342;5.528;2023-04-21T06:45:37;101489.16;;;9.33;81.64
43161;BME280;40968;52.342;5.528;2023-04-21T06:48:05;101522.78;;;9.53;81.63
43161;BME280;40968;52.342;5.528;2023-04-21T06:50:32;101356.31;;;8.56;81.62
43161;BME280;40968;52.342;5.528;2023-04-21T06:52:59;101518.13;;;9.56;81.65
43161;BME280;40968;52.342;5.528;2023-04-21T06:55:25;101544.88;;;9.56;81.87
43161;BME280;40968;52.342;5.528;2023-04-21T06:57:52;101484.69;;;9.33;81.60
43161;BME280;40968;52.342;5.528;2023-04-21T07:00:19;101352.19;;;8.67;81.69
43161;BME280;40968;52.342;5.528;2023-04-21T07:02:46;101422.13;;;9.05;81.67
43161;BME280;40968;52.342;5.528;2023-04-21T07:05:14;101504.34;;;9.62;81.69
43161;BME280;40968;52.342;5.528;2023-04-21T07:07:41;101370.19;;;8.79;81.65
43161;BME280;40968;52.342;5.528;2023-04-21T07:10:08;101523.56;;;9.69;81.76
43161;BME280;40968;52.342;5.528;2023-04-21T07:12:35;101467.41;;;9.39;81.73
43161;BME280;40968;52.342;5.528;2023-04-21T07:15:02;101335.56;;;8.61;81.66
43161;BME280;40968;52.342;5.528;2023-04-21T07:17:29;101426.97;;;9.29;81.79
43161;BME280;40968;52.342;5.528;2023-04-21T07:19:55;101500.94;;;9.75;81.72
43161;BME280;40968;52.342;5.528;2023-04-21T07:22:23;101469.25;;;9.53;81.70
43161;BME280;40968;52.342;5.528;2023-04-21T07:24:50;101527.72;;;9.75;81.67
43161;BME280;40968;52.342;5.528;2023-04-21T07:27:17;101530.31;;;9.76;81.84
43161;BME280;40968;52.342;5.528;2023-04-21T07:29:44;101524.75;;;9.79;81.76
43161;BME280;40968;52.342;5.528;2023-04-21T07:32:11;101475.38;;;9.55;81.88
43161;BME280;40968;52.342;5.528;2023-04-21T07:34:37;101523.16;;;9.91;81.81
43161;BME280;40968;52.342;5.528;2023-04-21T07:37:04;101513.00;;;9.96;81.69
43161;BME280;40968;52.342;5.528;2023-04-21T07:39:32;101523.25;;;10.04;81.97
43161;BME280;40968;52.342;5.528;2023-04-21T07:41:59;101457.44;;;9.71;81.84
43161;BME280;40968;52.342;5.528;2023-04-21T07:44:26;101482.22;;;9.89;81.77
43161;BME280;40968;52.342;5.528;2023-04-21T07:46:53;101524.91;;;10.21;81.64
43161;BME280;40968;52.342;5.528;2023-04-21T07:49:20;101517.66;;;10.23;81.40
43161;BME280;40968;52.342;5.528;2023-04-21T07:51:47;101449.31;;;9.87;81.29
43161;BME280;40968;52.342;5.528;2023-04-21T07:54:14;101303.97;;;8.99;80.80
43161;BME280;40968;52.342;5.528;2023-04-21T07:56:42;101344.63;;;9.20;80.82
43161;BME280;40968;52.342;5.528;2023-04-21T07:59:09;101337.16;;;9.10;80.57
43161;BME280;40968;52.342;5.528;2023-04-21T08:01:35;101450.47;;;9.83;80.61
43161;BME280;40968;52.342;5.528;2023-04-21T08:04:02;101509.13;;;10.17;80.69
43161;BME280;40968;52.342;5.528;2023-04-21T08:06:29;101483.47;;;9.98;80.60
43161;BME280;40968;52.342;5.528;2023-04-21T08:08:57;101305.09;;;8.94;80.46
43161;BME280;40968;52.342;5.528;2023-04-21T08:11:24;101521.28;;;10.22;80.51
43161;BME280;40968;52.342;5.528;2023-04-21T08:13:54;101463.06;;;9.81;80.36
43161;BME280;40968;52.342;5.528;2023-04-21T08:16:22;101516.97;;;10.20;80.64
43161;BME280;40968;52.342;5.528;2023-04-21T08:18:48;101496.59;;;10.03;80.48
43161;BME280;40968;52.342;5.528;2023-04-21T08:21:15;101509.03;;;10.04;80.53
43161;BME280;40968;52.342;5.528;2023-04-21T08:23:42;101521.66;;;10.16;80.89
43161;BME280;40968;52.342;5.528;2023-04-21T08:26:08;101367.16;;;9.30;80.59
43161;BME280;40968;52.342;5.528;2023-04-21T08:28:35;101518.97;;;10.16;80.90
43161;BME280;40968;52.342;5.528;2023-04-21T08:31:03;101481.66;;;9.99;80.98
43161;BME280;40968;52.342;5.528;2023-04-21T08:33:30;101526.84;;;10.19;80.73
43161;BME280;40968;52.342;5.528;2023-04-21T08:35:57;101526.63;;;10.22;80.84
43161;BME280;40968;52.342;5.528;2023-04-21T08:38:24;101524.53;;;10.27;81.03
43161;BME280;40968;52.342;5.528;2023-04-21T08:40:50;101488.81;;;10.12;80.66
43161;BME280;40968;52.342;5.528;2023-04-21T08:43:17;101492.00;;;10.19;80.99
43161;BME280;40968;52.342;5.528;2023-04-21T08:45:44;101474.09;;;10.20;80.49
43161;BME280;40968;52.342;5.528;2023-04-21T08:48:13;101529.91;;;10.56;80.42
43161;BME280;40968;52.342;5.528;2023-04-21T08:50:43;101290.25;;;9.19;80.25
43161;BME280;40968;52.342;5.528;2023-04-21T08:53:11;101433.94;;;10.05;79.89
43161;BME280;40968;52.342;5.528;2023-04-21T08:55:39;101392.94;;;9.90;79.77
43161;BME280;40968;52.342;5.528;2023-04-21T08:58:06;101530.63;;;10.73;79.81
43161;BME280;40968;52.342;5.528;2023-04-21T09:00:33;101430.56;;;10.16;79.83
43161;BME280;40968;52.342;5.528;2023-04-21T09:03:01;101496.03;;;10.55;79.65
43161;BME280;40968;52.342;5.528;2023-04-21T09:05:32;101507.03;;;10.65;79.54
43161;BME280;40968;52.342;5.528;2023-04-21T09:08:17;101501.19;;;10.58;78.95
43161;BME280;40968;52.342;5.528;2023-04-21T09:10:44;101348.38;;;9.60;78.97
43161;BME280;40968;52.342;5.528;2023-04-21T09:13:11;101399.97;;;9.91;79.12
43161;BME280;40968;52.342;5.528;2023-04-21T09:15:39;101542.53;;;10.69;79.31
43161;BME280;40968;52.342;5.528;2023-04-21T09:18:10;101481.78;;;10.40;79.42
43161;BME280;40968;52.342;5.528;2023-04-21T09:20:38;101468.50;;;10.39;79.22
43161;BME280;40968;52.342;5.528;2023-04-21T09:23:05;101337.94;;;9.70;79.21
43161;BME280;40968;52.342;5.528;2023-04-21T09:25:32;101482.13;;;10.63;79.12
43161;BME280;40968;52.342;5.528;2023-04-21T09:27:59;101521.44;;;10.91;79.23
43161;BME280;40968;52.342;5.528;2023-04-21T09:30:26;101517.47;;;10.97;79.03
43161;BME280;40968;52.342;5.528;2023-04-21T09:32:55;101485.38;;;10.68;78.96
43161;BME280;40968;52.342;5.528;2023-04-21T09:35:26;101462.88;;;10.71;78.61
43161;BME280;40968;52.342;5.528;2023-04-21T09:37:54;101522.25;;;11.06;78.60
43161;BME280;40968;52.342;5.528;2023-04-21T09:40:21;101540.06;;;11.07;78.49
43161;BME280;40968;52.342;5.528;2023-04-21T09:42:47;101525.50;;;11.11;78.58
43161;BME280;40968;52.342;5.528;2023-04-21T09:45:14;101437.34;;;10.65;78.01
43161;BME280;40968;52.342;5.528;2023-04-21T09:47:42;101472.38;;;10.89;78.41
43161;BME280;40968;52.342;5.528;2023-04-21T09:50:11;101466.81;;;10.92;77.87
43161;BME280;40968;52.342;5.528;2023-04-21T09:52:38;101495.88;;;11.13;77.62
43161;BME280;40968;52.342;5.528;2023-04-21T09:55:10;101510.63;;;11.20;77.69
43161;BME280;40968;52.342;5.528;2023-04-21T09:57:40;101465.75;;;10.95;77.48
43161;BME280;40968;52.342;5.528;2023-04-21T10:00:09;101467.31;;;10.99;77.58
43161;BME280;40968;52.342;5.528;2023-04-21T10:02:42;101480.84;;;11.10;77.39
43161;BME280;40968;52.342;5.528;2023-04-21T10:05:09;101501.22;;;11.40;77.55
43161;BME280;40968;52.342;5.528;2023-04-21T10:07:36;101446.13;;;11.22;77.14
43161;BME280;40968;52.342;5.528;2023-04-21T10:10:08;101494.50;;;11.60;77.02
43161;BME280;40968;52.342;5.528;2023-04-21T10:12:37;101497.31;;;11.72;77.06
43161;BME280;40968;52.342;5.528;2023-04-21T10:15:05;101498.19;;;11.85;76.85
43161;BME280;40968;52.342;5.528;2023-04-21T10:17:34;101412.25;;;11.47;76.26
43161;BME280;40968;52.342;5.528;2023-04-21T10:20:05;101500.91;;;12.11;76.06
43161;BME280;40968;52.342;5.528;2023-04-21T10:22:32;101503.78;;;12.21;75.61
43161;BME280;40968;52.342;5.528;2023-04-21T10:25:01;101482.34;;;12.08;75.46
43161;BME280;40968;52.342;5.528;2023-04-21T10:27:33;101512.63;;;12.36;75.48
43161;BME280;40968;52.342;5.528;2023-04-21T10:30:00;101432.66;;;12.01;75.48
43161;BME280;40968;52.342;5.528;2023-04-21T10:32:31;101497.53;;;12.59;75.07
43161;BME280;40968;52.342;5.528;2023-04-21T10:35:08;101496.84;;;12.68;73.59
43161;BME280;40968;52.342;5.528;2023-04-21T10:37:34;101490.56;;;12.81;73.80
43161;BME280;40968;52.342;5.528;2023-04-21T10:40:01;101496.16;;;12.90;73.37
43161;BME280;40968;52.342;5.528;2023-04-21T10:42:35;101423.72;;;12.63;73.67
43161;BME280;40968;52.342;5.528;2023-04-21T10:45:09;101483.06;;;13.21;72.54
43161;BME280;40968;52.342;5.528;2023-04-21T10:47:40;101440.88;;;12.98;71.23
43161;BME280;40968;52.342;5.528;2023-04-21T10:50:13;101478.28;;;13.38;71.99
43161;BME280;40968;52.342;5.528;2023-04-21T10:52:43;101480.28;;;13.47;70.94
43161;BME280;40968;52.342;5.528;2023-04-21T10:55:10;101405.06;;;12.97;70.01
43161;BME280;40968;52.342;5.528;2023-04-21T10:57:42;101409.13;;;13.03;69.60
43161;BME280;40968;52.342;5.528;2023-04-21T11:00:14;101220.56;;;11.99;70.27
43161;BME280;40968;52.342;5.528;2023-04-21T11:02:42;101461.19;;;13.50;69.99
43161;BME280;40968;52.342;5.528;2023-04-21T11:05:09;101455.16;;;13.47;69.92
43161;BME280;40968;52.342;5.528;2023-04-21T11:07:35;101455.28;;;13.45;70.21
43161;BME280;40968;52.342;5.528;2023-04-21T11:10:04;101450.53;;;13.49;70.26
43161;BME280;40968;52.342;5.528;2023-04-21T11:12:32;101455.59;;;13.53;70.49
43161;BME280;40968;52.342;5.528;2023-04-21T11:15:02;101346.91;;;12.83;69.37
43161;BME280;40968;52.342;5.528;2023-04-21T11:17:30;101424.63;;;13.35;69.99
43161;BME280;40968;52.342;5.528;2023-04-21T11:19:57;101379.38;;;13.29;69.83
43161;BME280;40968;52.342;5.528;2023-04-21T11:22:24;101347.41;;;13.24;69.73
43161;BME280;40968;52.342;5.528;2023-04-21T11:24:53;101396.94;;;13.57;68.95
43161;BME280;40968;52.342;5.528;2023-04-21T11:27:21;101434.81;;;13.89;69.11
43161;BME280;40968;52.342;5.528;2023-04-21T11:29:48;101429.31;;;14.02;68.95
43161;BME280;40968;52.342;5.528;2023-04-21T11:32:16;101377.88;;;13.94;68.93
43161;BME280;40968;52.342;5.528;2023-04-21T11:34:43;101428.91;;;14.41;68.66
43161;BME280;40968;52.342;5.528;2023-04-21T11:37:14;101401.50;;;14.24;67.58
43161;BME280;40968;52.342;5.528;2023-04-21T11:39:41;101402.59;;;14.22;66.53
43161;BME280;40968;52.342;5.528;2023-04-21T11:42:08;101431.88;;;14.38;67.07
43161;BME280;40968;52.342;5.528;2023-04-21T11:44:36;101387.31;;;14.11;67.42
43161;BME280;40968;52.342;5.528;2023-04-21T11:47:13;101418.50;;;14.36;66.68
43161;BME280;40968;52.342;5.528;2023-04-21T11:49:45;101373.34;;;14.06;66.38
43161;BME280;40968;52.342;5.528;2023-04-21T11:52:20;101367.56;;;14.10;66.13
43161;BME280;40968;52.342;5.528;2023-04-21T11:54:47;101385.81;;;14.18;66.39
43161;BME280;40968;52.342;5.528;2023-04-21T11:57:17;101415.41;;;14.52;66.22
43161;BME280;40968;52.342;5.528;2023-04-21T11:59:44;101404.41;;;14.55;65.65
43161;BME280;40968;52.342;5.528;2023-04-21T12:02:12;101400.44;;;14.71;66.03
43161;BME280;40968;52.342;5.528;2023-04-21T12:04:39;101291.94;;;14.23;65.66
43161;BME280;40968;52.342;5.528;2023-04-21T12:07:07;101341.88;;;14.83;65.22
43161;BME280;40968;52.342;5.528;2023-04-21T12:09:35;101357.44;;;15.12;64.53
43161;BME280;40968;52.342;5.528;2023-04-21T12:12:02;101389.19;;;15.40;63.62
43161;BME280;40968;52.342;5.528;2023-04-21T12:14:32;101386.38;;;15.42;63.35
43161;BME280;40968;52.342;5.528;2023-04-21T12:16:59;101389.78;;;15.44;63.19
43161;BME280;40968;52.342;5.528;2023-04-21T12:19:34;101305.31;;;15.11;63.28
43161;BME280;40968;52.342;5.528;2023-04-21T12:22:07;101178.59;;;14.46;63.54
43161;BME280;40968;52.342;5.528;2023-04-21T12:24:34;101376.31;;;15.75;62.83
43161;BME280;40968;52.342;5.528;2023-04-21T12:27:01;101310.75;;;15.42;62.07
43161;BME280;40968;52.342;5.528;2023-04-21T12:29:27;101282.56;;;15.35;62.44
43161;BME280;40968;52.342;5.528;2023-04-21T12:31:54;101271.47;;;15.38;61.93
43161;BME280;40968;52.342;5.528;2023-04-21T12:34:21;101365.34;;;15.98;61.47
43161;BME280;40968;52.342;5.528;2023-04-21T12:36:48;101332.31;;;15.84;61.96
43161;BME280;40968;52.342;5.528;2023-04-21T12:39:16;101244.22;;;15.41;61.28
43161;BME280;40968;52.342;5.528;2023-04-21T12:41:44;101366.75;;;16.33;60.98
43161;BME280;40968;52.342;5.528;2023-04-21T12:44:11;101367.31;;;16.46;61.50
43161;BME280;40968;52.342;5.528;2023-04-21T12:46:38;101327.88;;;16.34;60.38
43161;BME280;40968;52.342;5.528;2023-04-21T12:49:04;101310.81;;;16.53;59.80
43161;BME280;40968;52.342;5.528;2023-04-21T12:51:32;101345.56;;;16.77;59.81
43161;BME280;40968;52.342;5.528;2023-04-21T12:53:58;101330.63;;;16.73;59.08
43161;BME280;40968;52.342;5.528;2023-04-21T12:56:26;101265.09;;;16.30;58.61